Weather History for Cloquet, MN

Change the Weather History Date:

Sunday, May 19, 2013

  Actual Average Record
Temperature  
Mean Temperature 48 °F -  
Max Temperature 53 °F 58 °F 82 °F (2012)
Min Temperature 44 °F 37 °F 26 °F (2000)
Degree Days  
Heating Degree Days 16    
Moisture  
Dew Point 45 °F    
Average Humidity 88    
Maximum Humidity 94    
Minimum Humidity 77    
Precipitation  
Precipitation 0.22 in - - ()
Sea Level Pressure  
Sea Level Pressure 29.79 in    
Wind  
Wind Speed 8 mph (East)    
Max Wind Speed 21 mph    
Max Gust Speed 31 mph    
Visibility 3 miles    
Events Fog , Rain , Thunderstorm    
Averages and records for this station are not official NWS values.
T = Trace of Precipitation, MM = Missing Value Source: NWS Daily Summary

Daily Weather History Graph

Daily Weather History Graph

Search for Another Location

Airport:

Trip Planner

Search our weather history database for the weather conditions in past years. The results will help you decide how hot, cold, wet, or windy it might be!

Date:

Astronomy

May. 19, 2013 Rise Set
Actual Time 5:30 AM CDT 8:42 PM CDT
Civil Twilight 4:54 AM CDT 9:19 PM CDT
Nautical Twilight 4:07 AM CDT 10:07 PM CDT
Astronomical Twilight 3:08 AM CDT 11:06 PM CDT
Moon 2:26 PM CDT (5/19) 2:17 AM CDT (5/19)
Length of Visible Light 16h 25m
Length of Day
15h 12m
Waxing Gibbous, 65% of the Moon is Illuminated
May 19
Waxing Gibbous
May 24
Full
May 31
Last Quarter
Jun 8
New
Jun 16
First Quarter

Hourly Weather History & Observations

Time (CDT) Temp. Windchill Dew Point Humidity Pressure Visibility Wind Dir Wind Speed Gust Speed Precip Events Conditions
12:16 AM 44.6 °F 43.1 °F 42.8 °F 93% 29.88 in 0.2 mi ESE 3.5 mph - N/A Fog , Thunderstorm Fog
12:36 AM 44.6 °F 43.1 °F 42.8 °F 93% 29.88 in 0.2 mi ESE 3.5 mph - N/A Fog Fog
12:55 AM 44.6 °F - 42.8 °F 93% 29.88 in 0.2 mi Calm Calm - N/A Fog Fog
1:15 AM 44.6 °F 42.2 °F 42.8 °F 93% 29.86 in 0.2 mi East 4.6 mph - N/A Fog Fog
1:36 AM 44.6 °F 43.1 °F 42.8 °F 93% 29.86 in 0.2 mi East 3.5 mph - N/A Fog Fog
1:56 AM 44.6 °F 43.1 °F 42.8 °F 93% 29.86 in 0.2 mi ESE 3.5 mph - N/A Fog Fog
2:16 AM 44.6 °F 42.2 °F 42.8 °F 93% 29.86 in 0.2 mi East 4.6 mph - N/A Fog , Thunderstorm Fog
2:36 AM 44.6 °F 42.2 °F 42.8 °F 93% 29.85 in 0.2 mi East 4.6 mph - N/A Fog Fog
2:56 AM 44.6 °F 42.2 °F 41.0 °F 87% 29.86 in 0.2 mi East 4.6 mph - N/A Fog Fog
3:16 AM 44.6 °F 43.1 °F 41.0 °F 87% 29.87 in 0.2 mi East 3.5 mph - N/A Fog Fog
3:36 AM 44.6 °F 43.1 °F 41.0 °F 87% 29.86 in 0.2 mi East 3.5 mph - N/A Fog Fog
3:55 AM 44.6 °F 42.2 °F 41.0 °F 87% 29.87 in 0.2 mi ESE 4.6 mph - N/A Fog Fog
4:16 AM 44.6 °F 42.2 °F 41.0 °F 87% 29.86 in 0.2 mi ESE 4.6 mph - N/A Fog Fog
4:36 AM 44.6 °F 42.2 °F 41.0 °F 87% 29.86 in 0.2 mi ESE 4.6 mph - N/A Fog Fog
4:55 AM 44.6 °F 41.4 °F 41.0 °F 87% 29.85 in 0.2 mi ESE 5.8 mph - N/A Fog Fog
5:15 AM 44.6 °F 40.7 °F 41.0 °F 87% 29.84 in 0.2 mi ESE 6.9 mph - N/A Fog Fog
5:36 AM 44.6 °F 40.7 °F 41.0 °F 87% 29.83 in 0.2 mi ESE 6.9 mph - N/A Fog Fog
5:56 AM 44.6 °F 43.1 °F 42.8 °F 93% 29.82 in 0.2 mi East 3.5 mph - N/A Fog Fog
6:16 AM 44.6 °F 42.2 °F 42.8 °F 93% 29.81 in 0.2 mi East 4.6 mph - N/A Fog Fog
6:36 AM 44.6 °F 42.2 °F 42.8 °F 93% 29.82 in 0.2 mi ESE 4.6 mph - N/A Fog Fog
7:16 AM 46.4 °F 43.5 °F 42.8 °F 87% 29.85 in 0.2 mi ESE 5.8 mph - N/A Fog Fog
7:36 AM 46.4 °F 43.5 °F 42.8 °F 87% 29.84 in 0.2 mi East 5.8 mph - N/A Fog Fog
7:56 AM 46.4 °F 43.5 °F 44.6 °F 93% 29.83 in 0.2 mi East 5.8 mph - N/A Fog Fog
8:16 AM 48.2 °F - 44.6 °F 87% 29.83 in 0.2 mi East 6.9 mph - N/A Fog Fog
8:36 AM 48.2 °F - 46.4 °F 93% 29.83 in 0.2 mi East 8.1 mph - N/A Fog Fog
8:55 AM 48.2 °F - 46.4 °F 93% 29.83 in 0.2 mi East 10.4 mph - N/A Fog Fog
9:16 AM 48.2 °F - 44.6 °F 87% 29.82 in 0.2 mi East 11.5 mph - N/A Fog Fog
9:55 AM 46.4 °F 41.9 °F 44.6 °F 93% 29.79 in 0.2 mi East 9.2 mph - N/A Fog Fog
10:16 AM 46.4 °F 40.7 °F 44.6 °F 93% 29.75 in 0.5 mi East 12.7 mph 18.4 mph N/A Fog Fog
10:36 AM 48.2 °F - 46.4 °F 93% 29.75 in 1.8 mi East 10.4 mph 17.3 mph N/A   Overcast
10:55 AM 48.2 °F - 46.4 °F 93% 29.75 in 1.2 mi East 10.4 mph 18.4 mph N/A   Overcast
11:16 AM 48.2 °F - 46.4 °F 93% 29.79 in 1.2 mi ESE 10.4 mph - N/A   Overcast
11:36 AM 48.2 °F - 46.4 °F 93% 29.79 in 0.5 mi East 9.2 mph 17.3 mph N/A Fog Fog
11:55 AM 50.0 °F - 46.4 °F 87% 29.79 in 0.5 mi East 15.0 mph 18.4 mph N/A Fog Fog
12:16 PM 50.0 °F - 46.4 °F 87% 29.78 in 0.8 mi East 13.8 mph 20.7 mph N/A   Overcast
12:36 PM 50.0 °F - 46.4 °F 87% 29.78 in 1.0 mi East 10.4 mph 20.7 mph N/A   Overcast
12:55 PM 51.8 °F - 48.2 °F 88% 29.78 in 3.0 mi East 8.1 mph 16.1 mph N/A   Overcast
1:16 PM 53.6 °F - 50.0 °F 88% 29.77 in 4.0 mi East 11.5 mph - N/A   Overcast
1:36 PM 53.6 °F - 51.8 °F 94% 29.78 in 4.0 mi East 9.2 mph - N/A   Overcast
2:16 PM 53.6 °F - 51.8 °F 94% 29.78 in 4.0 mi ESE 8.1 mph - N/A   Overcast
2:36 PM 53.6 °F - 50.0 °F 88% 29.79 in 4.0 mi East 12.7 mph 16.1 mph N/A   Overcast
3:16 PM 53.6 °F - 51.8 °F 94% 29.78 in 7.0 mi East 15.0 mph 19.6 mph N/A   Overcast
3:36 PM 53.6 °F - 48.2 °F 82% 29.78 in 7.0 mi East 13.8 mph 18.4 mph N/A   Overcast
3:55 PM 53.6 °F - 48.2 °F 82% 29.78 in 7.0 mi East 13.8 mph 19.6 mph N/A   Overcast
4:16 PM 53.6 °F - 48.2 °F 82% 29.78 in 5.0 mi East 16.1 mph 21.9 mph N/A   Haze
4:36 PM 51.8 °F - 48.2 °F 88% 29.78 in 5.0 mi East 13.8 mph 23.0 mph N/A   Overcast
4:55 PM 53.6 °F - 48.2 °F 82% 29.77 in 5.0 mi East 16.1 mph 24.2 mph N/A   Haze
5:16 PM 53.6 °F - 48.2 °F 82% 29.77 in 7.0 mi ENE 12.7 mph 24.2 mph N/A   Overcast
5:36 PM 53.6 °F - 48.2 °F 82% 29.76 in 5.0 mi ENE 16.1 mph 24.2 mph N/A   Haze
5:55 PM 53.6 °F - 50.0 °F 88% 29.76 in 7.0 mi East 17.3 mph 25.3 mph N/A   Overcast
6:16 PM 53.6 °F - 48.2 °F 82% 29.76 in 7.0 mi ENE 16.1 mph 28.8 mph N/A   Overcast
6:36 PM 53.6 °F - 48.2 °F 82% 29.74 in 10.0 mi ENE 16.1 mph 28.8 mph N/A   Overcast
6:55 PM 53.6 °F - 46.4 °F 77% 29.74 in 10.0 mi East 17.3 mph 28.8 mph N/A Thunderstorm Overcast
7:16 PM 53.6 °F - 46.4 °F 77% 29.74 in 10.0 mi East 15.0 mph 31.1 mph N/A   Overcast
7:36 PM 51.8 °F - 46.4 °F 82% 29.72 in 7.0 mi ENE 19.6 mph 26.5 mph N/A Rain Rain
7:55 PM 51.8 °F - 48.2 °F 88% 29.74 in 7.0 mi East 17.3 mph 27.6 mph N/A   Overcast
8:16 PM 46.4 °F 39.8 °F 42.8 °F 87% 29.78 in 4.0 mi East 16.1 mph 29.9 mph 0.03 in Rain Rain
8:36 PM 46.4 °F 40.1 °F 44.6 °F 93% 29.76 in 4.0 mi East 15.0 mph 19.6 mph 0.19 in Rain Light Rain
8:55 PM 48.2 °F - 44.6 °F 87% 29.73 in 10.0 mi ENE 20.7 mph 27.6 mph 0.22 in Rain Light Rain
9:16 PM 48.2 °F - 46.4 °F 93% 29.72 in 10.0 mi East 12.7 mph 23.0 mph N/A   Overcast
9:36 PM 48.2 °F - 44.6 °F 87% 29.72 in 7.0 mi East 16.1 mph 23.0 mph N/A   Overcast
9:55 PM 48.2 °F - 44.6 °F 87% 29.71 in 4.0 mi East 17.3 mph 24.2 mph N/A   Overcast
10:16 PM 50.0 °F - 46.4 °F 87% 29.71 in 7.0 mi East 15.0 mph 24.2 mph N/A   Overcast
10:35 PM 50.0 °F - 46.4 °F 87% 29.72 in 5.0 mi East 10.4 mph 21.9 mph N/A   Overcast
10:56 PM 50.0 °F - 46.4 °F 87% 29.71 in 3.0 mi East 13.8 mph 25.3 mph N/A   Overcast
11:16 PM 50.0 °F - 46.4 °F 87% 29.71 in 2.0 mi East 15.0 mph 24.2 mph N/A   Overcast
11:36 PM 50.0 °F - 46.4 °F 87% 29.70 in 1.2 mi ENE 19.6 mph 26.5 mph N/A   Overcast
11:56 PM 51.8 °F - 48.2 °F 88% 29.70 in 1.2 mi East 16.1 mph 29.9 mph N/A   Overcast